sensor_id;sensor_type;location;lat;lon;timestamp;P1;durP1;ratioP1;P2;durP2;ratioP2
25715;SDS011;13573;50.936;4.328;2023-05-07T00:02:11;12.63;;;4.30;;
25715;SDS011;13573;50.936;4.328;2023-05-07T00:04:38;9.50;;;4.00;;
25715;SDS011;13573;50.936;4.328;2023-05-07T00:07:05;10.43;;;4.60;;
25715;SDS011;13573;50.936;4.328;2023-05-07T00:09:31;12.27;;;5.10;;
25715;SDS011;13573;50.936;4.328;2023-05-07T00:11:58;10.57;;;4.20;;
25715;SDS011;13573;50.936;4.328;2023-05-07T00:14:25;6.93;;;3.67;;
25715;SDS011;13573;50.936;4.328;2023-05-07T00:16:51;14.20;;;4.90;;
25715;SDS011;13573;50.936;4.328;2023-05-07T00:19:18;5.93;;;3.50;;
25715;SDS011;13573;50.936;4.328;2023-05-07T00:21:45;9.87;;;3.83;;
25715;SDS011;13573;50.936;4.328;2023-05-07T00:24:12;10.07;;;3.53;;
25715;SDS011;13573;50.936;4.328;2023-05-07T00:26:38;6.80;;;3.90;;
25715;SDS011;13573;50.936;4.328;2023-05-07T00:29:05;8.03;;;3.53;;
25715;SDS011;13573;50.936;4.328;2023-05-07T00:31:32;15.00;;;4.27;;
25715;SDS011;13573;50.936;4.328;2023-05-07T00:33:58;14.37;;;4.53;;
25715;SDS011;13573;50.936;4.328;2023-05-07T00:36:25;10.33;;;4.20;;
25715;SDS011;13573;50.936;4.328;2023-05-07T00:38:53;10.27;;;4.57;;
25715;SDS011;13573;50.936;4.328;2023-05-07T00:41:21;9.43;;;4.50;;
25715;SDS011;13573;50.936;4.328;2023-05-07T00:43:48;8.00;;;4.03;;
25715;SDS011;13573;50.936;4.328;2023-05-07T00:46:16;12.83;;;4.70;;
25715;SDS011;13573;50.936;4.328;2023-05-07T00:48:44;12.87;;;4.93;;
25715;SDS011;13573;50.936;4.328;2023-05-07T00:51:11;8.07;;;4.53;;
25715;SDS011;13573;50.936;4.328;2023-05-07T00:53:38;8.80;;;4.17;;
25715;SDS011;13573;50.936;4.328;2023-05-07T00:56:06;10.00;;;4.23;;
25715;SDS011;13573;50.936;4.328;2023-05-07T00:58:33;14.67;;;4.63;;
25715;SDS011;13573;50.936;4.328;2023-05-07T01:01:01;12.57;;;4.73;;
25715;SDS011;13573;50.936;4.328;2023-05-07T01:03:28;9.43;;;4.27;;
25715;SDS011;13573;50.936;4.328;2023-05-07T01:05:55;11.13;;;4.13;;
25715;SDS011;13573;50.936;4.328;2023-05-07T01:08:25;12.60;;;4.87;;
25715;SDS011;13573;50.936;4.328;2023-05-07T01:10:54;10.13;;;3.93;;
25715;SDS011;13573;50.936;4.328;2023-05-07T01:13:22;10.87;;;4.40;;
25715;SDS011;13573;50.936;4.328;2023-05-07T01:15:50;12.37;;;5.00;;
25715;SDS011;13573;50.936;4.328;2023-05-07T01:18:16;10.40;;;3.97;;
25715;SDS011;13573;50.936;4.328;2023-05-07T01:20:43;8.53;;;4.20;;
25715;SDS011;13573;50.936;4.328;2023-05-07T01:23:11;14.90;;;4.40;;
25715;SDS011;13573;50.936;4.328;2023-05-07T01:25:37;9.73;;;4.97;;
25715;SDS011;13573;50.936;4.328;2023-05-07T01:28:04;10.03;;;4.33;;
25715;SDS011;13573;50.936;4.328;2023-05-07T01:30:31;12.07;;;4.43;;
25715;SDS011;13573;50.936;4.328;2023-05-07T01:33:04;11.87;;;4.30;;
25715;SDS011;13573;50.936;4.328;2023-05-07T01:35:33;11.30;;;4.43;;
25715;SDS011;13573;50.936;4.328;2023-05-07T01:38:03;8.50;;;4.00;;
25715;SDS011;13573;50.936;4.328;2023-05-07T01:40:31;10.77;;;4.07;;
25715;SDS011;13573;50.936;4.328;2023-05-07T01:43:00;12.20;;;4.27;;
25715;SDS011;13573;50.936;4.328;2023-05-07T01:45:30;10.93;;;4.73;;
25715;SDS011;13573;50.936;4.328;2023-05-07T01:47:57;9.53;;;4.63;;
25715;SDS011;13573;50.936;4.328;2023-05-07T01:50:25;9.10;;;4.17;;
25715;SDS011;13573;50.936;4.328;2023-05-07T01:52:53;9.73;;;4.67;;
25715;SDS011;13573;50.936;4.328;2023-05-07T01:55:20;10.90;;;3.70;;
25715;SDS011;13573;50.936;4.328;2023-05-07T01:57:46;11.37;;;4.87;;
25715;SDS011;13573;50.936;4.328;2023-05-07T02:00:13;10.83;;;4.73;;
25715;SDS011;13573;50.936;4.328;2023-05-07T02:02:40;9.07;;;4.50;;
25715;SDS011;13573;50.936;4.328;2023-05-07T02:05:07;13.13;;;5.40;;
25715;SDS011;13573;50.936;4.328;2023-05-07T02:07:34;10.13;;;4.33;;
25715;SDS011;13573;50.936;4.328;2023-05-07T02:10:00;9.23;;;4.43;;
25715;SDS011;13573;50.936;4.328;2023-05-07T02:12:28;11.13;;;4.43;;
25715;SDS011;13573;50.936;4.328;2023-05-07T02:14:55;10.03;;;4.57;;
25715;SDS011;13573;50.936;4.328;2023-05-07T02:17:21;8.77;;;4.50;;
25715;SDS011;13573;50.936;4.328;2023-05-07T02:19:48;11.50;;;4.40;;
25715;SDS011;13573;50.936;4.328;2023-05-07T02:22:15;14.77;;;4.67;;
25715;SDS011;13573;50.936;4.328;2023-05-07T02:24:42;15.07;;;4.77;;
25715;SDS011;13573;50.936;4.328;2023-05-07T02:27:09;9.90;;;4.40;;
25715;SDS011;13573;50.936;4.328;2023-05-07T02:29:36;10.47;;;4.93;;
25715;SDS011;13573;50.936;4.328;2023-05-07T02:32:03;11.60;;;4.80;;
25715;SDS011;13573;50.936;4.328;2023-05-07T02:34:29;8.07;;;4.77;;
25715;SDS011;13573;50.936;4.328;2023-05-07T02:36:56;10.63;;;4.80;;
25715;SDS011;13573;50.936;4.328;2023-05-07T02:39:23;9.03;;;4.97;;
25715;SDS011;13573;50.936;4.328;2023-05-07T02:41:49;11.47;;;6.03;;
25715;SDS011;13573;50.936;4.328;2023-05-07T02:44:16;8.63;;;5.13;;
25715;SDS011;13573;50.936;4.328;2023-05-07T02:46:42;10.87;;;4.97;;
25715;SDS011;13573;50.936;4.328;2023-05-07T02:49:09;10.50;;;4.77;;
25715;SDS011;13573;50.936;4.328;2023-05-07T02:51:36;9.47;;;4.90;;
25715;SDS011;13573;50.936;4.328;2023-05-07T02:54:02;10.43;;;4.60;;
25715;SDS011;13573;50.936;4.328;2023-05-07T02:56:29;10.70;;;5.10;;
25715;SDS011;13573;50.936;4.328;2023-05-07T02:58:55;8.57;;;4.80;;
25715;SDS011;13573;50.936;4.328;2023-05-07T03:01:22;10.00;;;4.30;;
25715;SDS011;13573;50.936;4.328;2023-05-07T03:03:49;8.90;;;4.77;;
25715;SDS011;13573;50.936;4.328;2023-05-07T03:06:15;9.57;;;4.63;;
25715;SDS011;13573;50.936;4.328;2023-05-07T03:08:42;15.07;;;5.70;;
25715;SDS011;13573;50.936;4.328;2023-05-07T03:11:09;9.17;;;4.80;;
25715;SDS011;13573;50.936;4.328;2023-05-07T03:13:35;8.33;;;5.03;;
25715;SDS011;13573;50.936;4.328;2023-05-07T03:16:02;12.50;;;4.77;;
25715;SDS011;13573;50.936;4.328;2023-05-07T03:18:29;12.37;;;5.90;;
25715;SDS011;13573;50.936;4.328;2023-05-07T03:20:55;13.50;;;5.50;;
25715;SDS011;13573;50.936;4.328;2023-05-07T03:23:22;14.07;;;5.80;;
25715;SDS011;13573;50.936;4.328;2023-05-07T03:25:48;19.07;;;6.03;;
25715;SDS011;13573;50.936;4.328;2023-05-07T03:28:15;10.33;;;5.47;;
25715;SDS011;13573;50.936;4.328;2023-05-07T03:30:42;12.47;;;5.43;;
25715;SDS011;13573;50.936;4.328;2023-05-07T03:33:08;13.93;;;5.50;;
25715;SDS011;13573;50.936;4.328;2023-05-07T03:35:35;8.67;;;5.13;;
25715;SDS011;13573;50.936;4.328;2023-05-07T03:38:02;7.30;;;5.30;;
25715;SDS011;13573;50.936;4.328;2023-05-07T03:40:28;12.77;;;5.53;;
25715;SDS011;13573;50.936;4.328;2023-05-07T03:42:55;11.67;;;5.90;;
25715;SDS011;13573;50.936;4.328;2023-05-07T03:45:22;12.83;;;6.40;;
25715;SDS011;13573;50.936;4.328;2023-05-07T03:47:48;13.20;;;6.20;;
25715;SDS011;13573;50.936;4.328;2023-05-07T03:50:15;14.07;;;7.67;;
25715;SDS011;13573;50.936;4.328;2023-05-07T03:52:42;14.83;;;7.80;;
25715;SDS011;13573;50.936;4.328;2023-05-07T03:55:09;15.90;;;9.23;;
25715;SDS011;13573;50.936;4.328;2023-05-07T03:57:36;19.43;;;9.00;;
25715;SDS011;13573;50.936;4.328;2023-05-07T04:00:02;17.93;;;10.47;;
25715;SDS011;13573;50.936;4.328;2023-05-07T04:02:30;17.40;;;10.00;;
25715;SDS011;13573;50.936;4.328;2023-05-07T04:04:56;19.40;;;9.30;;
25715;SDS011;13573;50.936;4.328;2023-05-07T04:07:23;15.63;;;8.53;;
25715;SDS011;13573;50.936;4.328;2023-05-07T04:09:50;13.93;;;8.43;;
25715;SDS011;13573;50.936;4.328;2023-05-07T04:12:16;17.63;;;9.23;;
25715;SDS011;13573;50.936;4.328;2023-05-07T04:14:43;15.53;;;8.67;;
25715;SDS011;13573;50.936;4.328;2023-05-07T04:17:10;15.20;;;8.33;;
25715;SDS011;13573;50.936;4.328;2023-05-07T04:19:37;17.30;;;8.53;;
25715;SDS011;13573;50.936;4.328;2023-05-07T04:22:04;15.27;;;8.93;;
25715;SDS011;13573;50.936;4.328;2023-05-07T04:24:31;18.23;;;8.60;;
25715;SDS011;13573;50.936;4.328;2023-05-07T04:26:58;13.17;;;7.77;;
25715;SDS011;13573;50.936;4.328;2023-05-07T04:29:25;20.40;;;8.67;;
25715;SDS011;13573;50.936;4.328;2023-05-07T04:31:51;12.30;;;7.87;;
25715;SDS011;13573;50.936;4.328;2023-05-07T04:34:18;16.50;;;8.03;;
25715;SDS011;13573;50.936;4.328;2023-05-07T04:36:46;14.53;;;8.87;;
25715;SDS011;13573;50.936;4.328;2023-05-07T04:39:13;16.10;;;8.30;;
25715;SDS011;13573;50.936;4.328;2023-05-07T04:41:40;12.37;;;7.73;;
25715;SDS011;13573;50.936;4.328;2023-05-07T04:44:07;16.47;;;9.50;;
25715;SDS011;13573;50.936;4.328;2023-05-07T04:46:34;18.90;;;9.17;;
25715;SDS011;13573;50.936;4.328;2023-05-07T04:49:01;15.20;;;8.47;;
25715;SDS011;13573;50.936;4.328;2023-05-07T04:51:28;16.97;;;9.67;;
25715;SDS011;13573;50.936;4.328;2023-05-07T04:53:57;12.83;;;8.07;;
25715;SDS011;13573;50.936;4.328;2023-05-07T04:56:24;15.07;;;8.40;;
25715;SDS011;13573;50.936;4.328;2023-05-07T04:58:52;14.63;;;9.50;;
25715;SDS011;13573;50.936;4.328;2023-05-07T05:01:19;17.20;;;9.10;;
25715;SDS011;13573;50.936;4.328;2023-05-07T05:03:46;16.00;;;8.77;;
25715;SDS011;13573;50.936;4.328;2023-05-07T05:06:12;13.40;;;9.10;;
25715;SDS011;13573;50.936;4.328;2023-05-07T05:08:39;15.10;;;8.67;;
25715;SDS011;13573;50.936;4.328;2023-05-07T05:11:06;16.87;;;8.53;;
25715;SDS011;13573;50.936;4.328;2023-05-07T05:13:32;11.87;;;8.17;;
25715;SDS011;13573;50.936;4.328;2023-05-07T05:15:59;19.77;;;9.63;;
25715;SDS011;13573;50.936;4.328;2023-05-07T05:18:26;21.80;;;9.97;;
25715;SDS011;13573;50.936;4.328;2023-05-07T05:20:52;14.83;;;9.27;;
25715;SDS011;13573;50.936;4.328;2023-05-07T05:23:19;18.93;;;8.60;;
25715;SDS011;13573;50.936;4.328;2023-05-07T05:25:46;16.80;;;9.70;;
25715;SDS011;13573;50.936;4.328;2023-05-07T05:28:12;19.50;;;9.67;;
25715;SDS011;13573;50.936;4.328;2023-05-07T05:30:39;22.07;;;9.43;;
25715;SDS011;13573;50.936;4.328;2023-05-07T05:33:05;16.97;;;8.37;;
25715;SDS011;13573;50.936;4.328;2023-05-07T05:35:32;13.63;;;8.67;;
25715;SDS011;13573;50.936;4.328;2023-05-07T05:38:00;16.17;;;9.80;;
25715;SDS011;13573;50.936;4.328;2023-05-07T05:40:27;16.60;;;9.93;;
25715;SDS011;13573;50.936;4.328;2023-05-07T05:42:54;14.97;;;10.30;;
25715;SDS011;13573;50.936;4.328;2023-05-07T05:45:20;17.80;;;10.03;;
25715;SDS011;13573;50.936;4.328;2023-05-07T05:47:47;13.57;;;9.13;;
25715;SDS011;13573;50.936;4.328;2023-05-07T05:50:14;15.47;;;8.93;;
25715;SDS011;13573;50.936;4.328;2023-05-07T05:52:40;19.57;;;10.03;;
25715;SDS011;13573;50.936;4.328;2023-05-07T05:55:08;14.70;;;9.67;;
25715;SDS011;13573;50.936;4.328;2023-05-07T05:57:35;14.10;;;9.90;;
25715;SDS011;13573;50.936;4.328;2023-05-07T06:00:02;16.37;;;9.23;;
25715;SDS011;13573;50.936;4.328;2023-05-07T06:02:29;18.93;;;10.87;;
25715;SDS011;13573;50.936;4.328;2023-05-07T06:04:56;15.83;;;9.17;;
25715;SDS011;13573;50.936;4.328;2023-05-07T06:07:22;18.80;;;9.77;;
25715;SDS011;13573;50.936;4.328;2023-05-07T06:09:49;19.70;;;10.07;;
25715;SDS011;13573;50.936;4.328;2023-05-07T06:12:16;15.90;;;9.13;;
25715;SDS011;13573;50.936;4.328;2023-05-07T06:14:43;16.47;;;8.37;;
25715;SDS011;13573;50.936;4.328;2023-05-07T06:17:10;15.73;;;8.93;;
25715;SDS011;13573;50.936;4.328;2023-05-07T06:19:36;15.00;;;8.90;;
25715;SDS011;13573;50.936;4.328;2023-05-07T06:22:03;17.70;;;8.47;;
25715;SDS011;13573;50.936;4.328;2023-05-07T06:24:30;11.90;;;7.27;;
25715;SDS011;13573;50.936;4.328;2023-05-07T06:26:56;12.67;;;7.53;;
25715;SDS011;13573;50.936;4.328;2023-05-07T06:29:24;12.63;;;7.37;;
25715;SDS011;13573;50.936;4.328;2023-05-07T06:31:52;15.13;;;7.17;;
25715;SDS011;13573;50.936;4.328;2023-05-07T06:34:19;15.70;;;6.90;;
25715;SDS011;13573;50.936;4.328;2023-05-07T06:36:46;19.67;;;6.37;;
25715;SDS011;13573;50.936;4.328;2023-05-07T06:39:12;16.83;;;6.40;;
25715;SDS011;13573;50.936;4.328;2023-05-07T06:41:39;11.40;;;5.07;;
25715;SDS011;13573;50.936;4.328;2023-05-07T06:44:06;14.60;;;5.87;;
25715;SDS011;13573;50.936;4.328;2023-05-07T06:46:32;13.07;;;5.83;;
25715;SDS011;13573;50.936;4.328;2023-05-07T06:48:59;12.40;;;5.33;;
25715;SDS011;13573;50.936;4.328;2023-05-07T06:51:25;15.07;;;5.67;;
25715;SDS011;13573;50.936;4.328;2023-05-07T06:53:52;14.63;;;6.23;;
25715;SDS011;13573;50.936;4.328;2023-05-07T06:56:19;19.00;;;6.00;;
25715;SDS011;13573;50.936;4.328;2023-05-07T06:58:46;11.60;;;5.50;;
25715;SDS011;13573;50.936;4.328;2023-05-07T07:01:13;12.77;;;6.00;;
25715;SDS011;13573;50.936;4.328;2023-05-07T07:03:39;12.80;;;5.73;;
25715;SDS011;13573;50.936;4.328;2023-05-07T07:06:06;14.17;;;6.20;;
25715;SDS011;13573;50.936;4.328;2023-05-07T07:08:33;9.40;;;5.10;;
25715;SDS011;13573;50.936;4.328;2023-05-07T07:11:00;13.77;;;5.27;;
25715;SDS011;13573;50.936;4.328;2023-05-07T07:13:26;9.27;;;4.70;;
25715;SDS011;13573;50.936;4.328;2023-05-07T07:15:53;11.27;;;4.80;;
25715;SDS011;13573;50.936;4.328;2023-05-07T07:18:20;14.10;;;5.93;;
25715;SDS011;13573;50.936;4.328;2023-05-07T07:20:46;10.70;;;5.23;;
25715;SDS011;13573;50.936;4.328;2023-05-07T07:23:13;9.63;;;4.53;;
25715;SDS011;13573;50.936;4.328;2023-05-07T07:25:40;10.77;;;5.17;;
25715;SDS011;13573;50.936;4.328;2023-05-07T07:28:07;15.17;;;5.37;;
25715;SDS011;13573;50.936;4.328;2023-05-07T07:30:33;10.33;;;4.67;;
25715;SDS011;13573;50.936;4.328;2023-05-07T07:33:00;17.17;;;5.77;;
25715;SDS011;13573;50.936;4.328;2023-05-07T07:35:29;13.43;;;4.77;;
25715;SDS011;13573;50.936;4.328;2023-05-07T07:37:56;16.03;;;5.67;;
25715;SDS011;13573;50.936;4.328;2023-05-07T07:40:22;13.43;;;5.23;;
25715;SDS011;13573;50.936;4.328;2023-05-07T07:42:50;14.20;;;5.37;;
25715;SDS011;13573;50.936;4.328;2023-05-07T07:45:18;9.20;;;4.67;;
25715;SDS011;13573;50.936;4.328;2023-05-07T07:47:44;14.77;;;5.30;;
25715;SDS011;13573;50.936;4.328;2023-05-07T07:50:11;9.93;;;5.33;;
25715;SDS011;13573;50.936;4.328;2023-05-07T07:52:37;12.10;;;5.37;;
25715;SDS011;13573;50.936;4.328;2023-05-07T07:55:04;12.13;;;5.83;;
25715;SDS011;13573;50.936;4.328;2023-05-07T07:57:32;10.57;;;4.87;;
25715;SDS011;13573;50.936;4.328;2023-05-07T07:59:59;10.20;;;5.50;;
25715;SDS011;13573;50.936;4.328;2023-05-07T08:02:26;12.00;;;4.93;;
25715;SDS011;13573;50.936;4.328;2023-05-07T08:04:53;11.80;;;5.60;;
25715;SDS011;13573;50.936;4.328;2023-05-07T08:07:19;12.17;;;4.90;;
25715;SDS011;13573;50.936;4.328;2023-05-07T08:09:48;9.47;;;4.60;;
25715;SDS011;13573;50.936;4.328;2023-05-07T08:12:15;8.93;;;4.80;;
25715;SDS011;13573;50.936;4.328;2023-05-07T08:14:42;7.53;;;4.83;;
25715;SDS011;13573;50.936;4.328;2023-05-07T08:17:09;8.27;;;5.07;;
25715;SDS011;13573;50.936;4.328;2023-05-07T08:19:35;9.93;;;4.87;;
25715;SDS011;13573;50.936;4.328;2023-05-07T08:22:02;9.77;;;4.80;;
25715;SDS011;13573;50.936;4.328;2023-05-07T08:24:31;11.33;;;4.70;;
25715;SDS011;13573;50.936;4.328;2023-05-07T08:26:57;14.70;;;7.40;;
25715;SDS011;13573;50.936;4.328;2023-05-07T08:29:24;9.03;;;5.20;;
25715;SDS011;13573;50.936;4.328;2023-05-07T08:31:51;14.10;;;5.73;;
25715;SDS011;13573;50.936;4.328;2023-05-07T08:34:17;13.67;;;5.57;;
25715;SDS011;13573;50.936;4.328;2023-05-07T08:36:44;11.23;;;5.43;;
25715;SDS011;13573;50.936;4.328;2023-05-07T08:39:12;12.83;;;6.13;;
25715;SDS011;13573;50.936;4.328;2023-05-07T08:41:39;11.20;;;4.87;;
25715;SDS011;13573;50.936;4.328;2023-05-07T08:44:06;13.90;;;5.00;;
25715;SDS011;13573;50.936;4.328;2023-05-07T08:46:37;12.50;;;5.70;;
25715;SDS011;13573;50.936;4.328;2023-05-07T08:49:05;13.90;;;4.80;;
25715;SDS011;13573;50.936;4.328;2023-05-07T08:51:32;11.03;;;4.70;;
25715;SDS011;13573;50.936;4.328;2023-05-07T08:54:00;11.23;;;4.47;;
25715;SDS011;13573;50.936;4.328;2023-05-07T08:56:28;10.37;;;4.47;;
25715;SDS011;13573;50.936;4.328;2023-05-07T08:58:54;8.47;;;4.50;;
25715;SDS011;13573;50.936;4.328;2023-05-07T09:01:23;12.37;;;4.50;;
25715;SDS011;13573;50.936;4.328;2023-05-07T09:03:50;7.90;;;4.80;;
25715;SDS011;13573;50.936;4.328;2023-05-07T09:06:19;11.50;;;5.00;;
25715;SDS011;13573;50.936;4.328;2023-05-07T09:08:49;11.73;;;4.13;;
25715;SDS011;13573;50.936;4.328;2023-05-07T09:11:19;8.90;;;4.67;;
25715;SDS011;13573;50.936;4.328;2023-05-07T09:13:47;9.80;;;4.37;;
25715;SDS011;13573;50.936;4.328;2023-05-07T09:16:14;13.13;;;5.60;;
25715;SDS011;13573;50.936;4.328;2023-05-07T09:18:41;5.83;;;3.77;;
25715;SDS011;13573;50.936;4.328;2023-05-07T09:21:09;11.07;;;4.13;;
25715;SDS011;13573;50.936;4.328;2023-05-07T09:23:37;9.43;;;3.07;;
25715;SDS011;13573;50.936;4.328;2023-05-07T09:26:05;9.30;;;3.77;;
25715;SDS011;13573;50.936;4.328;2023-05-07T09:28:34;12.00;;;4.40;;
25715;SDS011;13573;50.936;4.328;2023-05-07T09:31:03;6.83;;;3.80;;
25715;SDS011;13573;50.936;4.328;2023-05-07T09:33:30;12.30;;;5.27;;
25715;SDS011;13573;50.936;4.328;2023-05-07T09:35:57;24.90;;;7.43;;
25715;SDS011;13573;50.936;4.328;2023-05-07T09:38:24;8.20;;;4.07;;
25715;SDS011;13573;50.936;4.328;2023-05-07T09:41:01;7.67;;;4.23;;
25715;SDS011;13573;50.936;4.328;2023-05-07T09:43:32;5.90;;;3.50;;
25715;SDS011;13573;50.936;4.328;2023-05-07T09:46:18;9.20;;;3.17;;
25715;SDS011;13573;50.936;4.328;2023-05-07T09:48:50;10.47;;;4.37;;
25715;SDS011;13573;50.936;4.328;2023-05-07T09:51:22;8.03;;;3.83;;
25715;SDS011;13573;50.936;4.328;2023-05-07T09:53:53;16.53;;;6.13;;
25715;SDS011;13573;50.936;4.328;2023-05-07T09:56:22;14.27;;;4.83;;
25715;SDS011;13573;50.936;4.328;2023-05-07T09:58:49;13.13;;;5.93;;
25715;SDS011;13573;50.936;4.328;2023-05-07T10:01:20;11.73;;;4.50;;
25715;SDS011;13573;50.936;4.328;2023-05-07T10:03:47;10.30;;;4.57;;
25715;SDS011;13573;50.936;4.328;2023-05-07T10:06:15;7.57;;;4.37;;
25715;SDS011;13573;50.936;4.328;2023-05-07T10:08:43;8.37;;;3.80;;
25715;SDS011;13573;50.936;4.328;2023-05-07T10:11:12;13.70;;;4.27;;
25715;SDS011;13573;50.936;4.328;2023-05-07T10:13:41;7.87;;;4.00;;
25715;SDS011;13573;50.936;4.328;2023-05-07T10:16:08;18.33;;;4.83;;
25715;SDS011;13573;50.936;4.328;2023-05-07T10:18:35;11.00;;;4.33;;
25715;SDS011;13573;50.936;4.328;2023-05-07T10:21:08;16.43;;;4.60;;
25715;SDS011;13573;50.936;4.328;2023-05-07T10:23:39;17.23;;;4.80;;
25715;SDS011;13573;50.936;4.328;2023-05-07T10:26:07;13.87;;;4.33;;
25715;SDS011;13573;50.936;4.328;2023-05-07T10:28:37;10.47;;;4.67;;
25715;SDS011;13573;50.936;4.328;2023-05-07T10:33:43;12.77;;;4.93;;
25715;SDS011;13573;50.936;4.328;2023-05-07T10:36:12;13.77;;;4.90;;
25715;SDS011;13573;50.936;4.328;2023-05-07T10:38:39;12.47;;;4.80;;
25715;SDS011;13573;50.936;4.328;2023-05-07T10:41:06;10.93;;;5.40;;
25715;SDS011;13573;50.936;4.328;2023-05-07T10:43:38;11.80;;;4.60;;
25715;SDS011;13573;50.936;4.328;2023-05-07T10:46:13;11.50;;;4.20;;
25715;SDS011;13573;50.936;4.328;2023-05-07T10:51:33;12.50;;;4.53;;
25715;SDS011;13573;50.936;4.328;2023-05-07T10:56:51;8.80;;;4.60;;
25715;SDS011;13573;50.936;4.328;2023-05-07T11:02:04;11.57;;;4.63;;
25715;SDS011;13573;50.936;4.328;2023-05-07T11:04:33;12.13;;;4.93;;
25715;SDS011;13573;50.936;4.328;2023-05-07T11:07:32;12.83;;;5.57;;
25715;SDS011;13573;50.936;4.328;2023-05-07T11:09:58;11.10;;;5.30;;
25715;SDS011;13573;50.936;4.328;2023-05-07T11:17:57;11.30;;;5.23;;
25715;SDS011;13573;50.936;4.328;2023-05-07T11:23:03;12.57;;;4.77;;
25715;SDS011;13573;50.936;4.328;2023-05-07T11:25:29;5.87;;;4.17;;
25715;SDS011;13573;50.936;4.328;2023-05-07T11:27:56;9.77;;;4.60;;
25715;SDS011;13573;50.936;4.328;2023-05-07T11:30:27;8.53;;;4.90;;
25715;SDS011;13573;50.936;4.328;2023-05-07T11:32:55;9.10;;;4.50;;
25715;SDS011;13573;50.936;4.328;2023-05-07T11:35:22;8.47;;;4.97;;
25715;SDS011;13573;50.936;4.328;2023-05-07T11:37:50;11.17;;;4.30;;
25715;SDS011;13573;50.936;4.328;2023-05-07T11:40:20;14.30;;;3.63;;
25715;SDS011;13573;50.936;4.328;2023-05-07T11:42:47;6.43;;;3.10;;
25715;SDS011;13573;50.936;4.328;2023-05-07T11:45:14;6.17;;;2.63;;
25715;SDS011;13573;50.936;4.328;2023-05-07T11:47:44;10.40;;;4.23;;
25715;SDS011;13573;50.936;4.328;2023-05-07T11:50:11;8.37;;;3.70;;
25715;SDS011;13573;50.936;4.328;2023-05-07T11:52:37;7.40;;;3.53;;
25715;SDS011;13573;50.936;4.328;2023-05-07T11:55:04;5.77;;;2.83;;
25715;SDS011;13573;50.936;4.328;2023-05-07T11:57:33;4.53;;;2.93;;
25715;SDS011;13573;50.936;4.328;2023-05-07T12:00:00;7.83;;;3.60;;
25715;SDS011;13573;50.936;4.328;2023-05-07T12:02:29;8.13;;;3.40;;
25715;SDS011;13573;50.936;4.328;2023-05-07T12:04:56;6.43;;;3.47;;
25715;SDS011;13573;50.936;4.328;2023-05-07T12:07:23;9.17;;;4.07;;
25715;SDS011;13573;50.936;4.328;2023-05-07T12:09:50;9.50;;;3.90;;
25715;SDS011;13573;50.936;4.328;2023-05-07T12:12:18;11.50;;;4.30;;
25715;SDS011;13573;50.936;4.328;2023-05-07T12:14:45;6.93;;;3.77;;
25715;SDS011;13573;50.936;4.328;2023-05-07T12:17:13;6.53;;;4.07;;
25715;SDS011;13573;50.936;4.328;2023-05-07T12:19:41;8.20;;;4.47;;
25715;SDS011;13573;50.936;4.328;2023-05-07T12:22:09;10.80;;;3.93;;
25715;SDS011;13573;50.936;4.328;2023-05-07T12:27:12;5.47;;;2.47;;
25715;SDS011;13573;50.936;4.328;2023-05-07T12:29:46;5.50;;;2.73;;
25715;SDS011;13573;50.936;4.328;2023-05-07T12:32:15;4.77;;;2.50;;
25715;SDS011;13573;50.936;4.328;2023-05-07T12:34:42;7.70;;;2.50;;
25715;SDS011;13573;50.936;4.328;2023-05-07T12:42:33;5.20;;;3.33;;
25715;SDS011;13573;50.936;4.328;2023-05-07T12:45:08;6.67;;;2.83;;
25715;SDS011;13573;50.936;4.328;2023-05-07T12:47:38;6.10;;;3.50;;
25715;SDS011;13573;50.936;4.328;2023-05-07T12:50:05;7.37;;;3.20;;
25715;SDS011;13573;50.936;4.328;2023-05-07T12:55:44;5.27;;;2.80;;
25715;SDS011;13573;50.936;4.328;2023-05-07T12:58:15;4.97;;;2.00;;
25715;SDS011;13573;50.936;4.328;2023-05-07T13:00:46;4.30;;;2.77;;
25715;SDS011;13573;50.936;4.328;2023-05-07T13:03:32;7.03;;;3.13;;
25715;SDS011;13573;50.936;4.328;2023-05-07T13:06:02;5.17;;;3.20;;
25715;SDS011;13573;50.936;4.328;2023-05-07T13:08:31;5.20;;;3.33;;
25715;SDS011;13573;50.936;4.328;2023-05-07T13:11:02;5.23;;;3.30;;
25715;SDS011;13573;50.936;4.328;2023-05-07T13:13:30;6.30;;;4.00;;
25715;SDS011;13573;50.936;4.328;2023-05-07T13:15:57;6.03;;;4.10;;
25715;SDS011;13573;50.936;4.328;2023-05-07T13:18:24;4.87;;;3.93;;
25715;SDS011;13573;50.936;4.328;2023-05-07T13:20:52;7.23;;;3.67;;
25715;SDS011;13573;50.936;4.328;2023-05-07T13:23:19;5.37;;;3.67;;
25715;SDS011;13573;50.936;4.328;2023-05-07T13:25:46;5.60;;;4.10;;
25715;SDS011;13573;50.936;4.328;2023-05-07T13:28:13;6.93;;;4.40;;
25715;SDS011;13573;50.936;4.328;2023-05-07T13:30:40;4.83;;;3.43;;
25715;SDS011;13573;50.936;4.328;2023-05-07T13:33:07;6.77;;;4.67;;
25715;SDS011;13573;50.936;4.328;2023-05-07T13:35:34;7.37;;;4.07;;
25715;SDS011;13573;50.936;4.328;2023-05-07T13:38:01;4.53;;;3.57;;
25715;SDS011;13573;50.936;4.328;2023-05-07T13:40:28;7.87;;;4.60;;
25715;SDS011;13573;50.936;4.328;2023-05-07T13:42:56;6.57;;;4.10;;
25715;SDS011;13573;50.936;4.328;2023-05-07T13:45:24;4.90;;;3.70;;
25715;SDS011;13573;50.936;4.328;2023-05-07T13:47:52;8.13;;;3.73;;
25715;SDS011;13573;50.936;4.328;2023-05-07T13:50:18;4.17;;;3.63;;
25715;SDS011;13573;50.936;4.328;2023-05-07T13:52:45;6.73;;;4.40;;
25715;SDS011;13573;50.936;4.328;2023-05-07T13:55:14;7.47;;;4.87;;
25715;SDS011;13573;50.936;4.328;2023-05-07T13:57:41;9.30;;;5.90;;
25715;SDS011;13573;50.936;4.328;2023-05-07T14:00:07;9.67;;;5.57;;
25715;SDS011;13573;50.936;4.328;2023-05-07T14:02:35;7.00;;;5.10;;
25715;SDS011;13573;50.936;4.328;2023-05-07T14:05:01;8.33;;;5.47;;
25715;SDS011;13573;50.936;4.328;2023-05-07T14:07:28;6.53;;;5.50;;
25715;SDS011;13573;50.936;4.328;2023-05-07T14:09:54;7.00;;;5.40;;
25715;SDS011;13573;50.936;4.328;2023-05-07T14:12:22;7.13;;;5.20;;
25715;SDS011;13573;50.936;4.328;2023-05-07T14:14:49;8.10;;;5.80;;
25715;SDS011;13573;50.936;4.328;2023-05-07T14:17:16;11.93;;;7.37;;
25715;SDS011;13573;50.936;4.328;2023-05-07T14:19:44;8.17;;;5.77;;
25715;SDS011;13573;50.936;4.328;2023-05-07T14:22:10;8.30;;;6.13;;
25715;SDS011;13573;50.936;4.328;2023-05-07T14:24:39;10.07;;;7.30;;
25715;SDS011;13573;50.936;4.328;2023-05-07T14:27:05;11.43;;;7.43;;
25715;SDS011;13573;50.936;4.328;2023-05-07T14:29:32;12.27;;;8.47;;
25715;SDS011;13573;50.936;4.328;2023-05-07T14:32:01;10.10;;;7.60;;
25715;SDS011;13573;50.936;4.328;2023-05-07T14:34:28;8.33;;;6.23;;
25715;SDS011;13573;50.936;4.328;2023-05-07T14:36:55;8.00;;;6.00;;
25715;SDS011;13573;50.936;4.328;2023-05-07T14:39:22;10.40;;;7.43;;
25715;SDS011;13573;50.936;4.328;2023-05-07T14:41:48;9.80;;;6.40;;
25715;SDS011;13573;50.936;4.328;2023-05-07T14:44:15;9.27;;;6.43;;
25715;SDS011;13573;50.936;4.328;2023-05-07T14:46:41;7.67;;;5.47;;
25715;SDS011;13573;50.936;4.328;2023-05-07T14:49:08;9.90;;;7.57;;
25715;SDS011;13573;50.936;4.328;2023-05-07T14:51:37;10.80;;;7.67;;
25715;SDS011;13573;50.936;4.328;2023-05-07T14:54:03;12.63;;;8.23;;
25715;SDS011;13573;50.936;4.328;2023-05-07T14:56:30;9.50;;;7.20;;
25715;SDS011;13573;50.936;4.328;2023-05-07T14:58:56;13.07;;;9.03;;
25715;SDS011;13573;50.936;4.328;2023-05-07T15:01:24;11.43;;;8.20;;
25715;SDS011;13573;50.936;4.328;2023-05-07T15:03:51;12.73;;;8.40;;
25715;SDS011;13573;50.936;4.328;2023-05-07T15:06:18;11.07;;;7.60;;
25715;SDS011;13573;50.936;4.328;2023-05-07T15:08:44;12.97;;;7.80;;
25715;SDS011;13573;50.936;4.328;2023-05-07T15:11:11;10.00;;;6.17;;